createdAt,value
2024-04-12T00:00:23.918Z,29.81
2024-04-12T00:01:24.058Z,29.77
2024-04-12T00:02:24.164Z,29.75
2024-04-12T00:03:24.206Z,29.75
2024-04-12T00:04:24.193Z,29.75
2024-04-12T00:05:24.240Z,29.72
2024-04-12T00:06:24.320Z,29.77
2024-04-12T00:07:24.383Z,29.75
2024-04-12T00:08:24.440Z,29.74
2024-04-12T00:09:24.532Z,29.75
2024-04-12T00:10:24.600Z,29.71
2024-04-12T00:11:24.685Z,29.72
2024-04-12T00:12:24.721Z,29.71
2024-04-12T00:13:24.775Z,29.72
2024-04-12T00:14:24.844Z,29.74
2024-04-12T00:15:24.926Z,29.77
2024-04-12T00:16:25.007Z,29.74
2024-04-12T00:17:25.094Z,29.71
2024-04-12T00:18:25.192Z,29.71
2024-04-12T00:19:25.325Z,29.71
2024-04-12T00:20:25.276Z,29.74
2024-04-12T00:21:25.332Z,29.71
2024-04-12T00:22:25.364Z,29.70
2024-04-12T00:23:25.414Z,29.71
2024-04-12T00:24:26.056Z,29.70
2024-04-12T00:25:25.557Z,29.64
2024-04-12T00:26:25.646Z,29.72
2024-04-12T00:27:25.662Z,29.70
2024-04-12T00:28:25.698Z,29.68
2024-04-12T00:29:25.755Z,29.70
2024-04-12T00:30:25.822Z,29.71
2024-04-12T00:31:25.846Z,29.67
2024-04-12T00:32:25.913Z,29.64
2024-04-12T00:33:26.142Z,29.68
2024-04-12T00:34:25.939Z,29.65
2024-04-12T00:35:26.002Z,29.64
2024-04-12T00:36:26.049Z,29.64
2024-04-12T00:37:26.085Z,29.64
2024-04-12T00:38:26.129Z,29.61
2024-04-12T00:39:26.187Z,29.63
2024-04-12T00:40:26.236Z,29.63
2024-04-12T00:41:26.288Z,29.60
2024-04-12T00:42:26.359Z,29.64
2024-04-12T00:43:26.413Z,29.60
2024-04-12T00:44:26.487Z,29.57
2024-04-12T00:45:26.539Z,29.63
2024-04-12T00:46:26.625Z,29.57
2024-04-12T00:47:26.730Z,29.59
2024-04-12T00:48:26.816Z,29.60
2024-04-12T00:49:26.801Z,29.57
2024-04-12T00:50:26.866Z,29.59
2024-04-12T00:51:26.932Z,29.61
2024-04-12T00:52:26.991Z,29.59
2024-04-12T00:53:27.068Z,29.54
2024-04-12T00:54:27.124Z,29.58
2024-04-12T00:55:27.194Z,29.62
2024-04-12T00:56:27.266Z,29.60
2024-04-12T00:57:27.302Z,29.62
2024-04-12T00:58:27.389Z,29.50
2024-04-12T00:59:27.441Z,29.55
2024-04-12T01:00:27.496Z,29.50
2024-04-12T01:01:27.652Z,29.54
2024-04-12T01:02:27.674Z,29.50
2024-04-12T01:03:27.769Z,29.55
2024-04-12T01:04:27.891Z,29.51
2024-04-12T01:05:27.829Z,29.57
2024-04-12T01:06:27.908Z,29.54
2024-04-12T01:07:27.999Z,29.52
2024-04-12T01:08:28.040Z,29.55
2024-04-12T01:09:28.113Z,29.58
2024-04-12T01:10:28.997Z,29.51
2024-04-12T01:11:28.230Z,29.53
2024-04-12T01:12:28.919Z,29.51
2024-04-12T01:13:28.366Z,29.53
2024-04-12T01:14:28.430Z,29.53
2024-04-12T01:15:28.457Z,29.48
2024-04-12T01:16:28.588Z,29.53
2024-04-12T01:17:28.654Z,29.51
2024-04-12T01:18:28.706Z,29.52
2024-04-12T01:19:28.700Z,29.53
2024-04-12T01:20:28.748Z,29.50
2024-04-12T01:21:28.821Z,29.47
2024-04-12T01:22:28.858Z,29.48
2024-04-12T01:23:28.923Z,29.51
2024-04-12T01:24:29.015Z,29.47
2024-04-12T01:25:29.053Z,29.44
2024-04-12T01:26:29.240Z,29.48
2024-04-12T01:27:29.203Z,29.50
2024-04-12T01:28:29.266Z,29.48
2024-04-12T01:29:29.319Z,29.45
2024-04-12T01:30:29.384Z,29.45
2024-04-12T01:31:29.448Z,29.43
2024-04-12T01:32:29.523Z,29.48
2024-04-12T01:33:29.656Z,29.47
2024-04-12T01:34:29.622Z,29.41
2024-04-12T01:35:29.681Z,29.43
2024-04-12T01:36:29.761Z,29.44
2024-04-12T01:37:29.811Z,29.44
2024-04-12T01:38:29.884Z,29.40
2024-04-12T01:39:29.988Z,29.43
2024-04-12T01:40:29.984Z,29.44
2024-04-12T01:41:30.053Z,29.45
2024-04-12T01:42:30.095Z,29.42
2024-04-12T01:43:30.213Z,29.40
2024-04-12T01:44:30.238Z,29.39
2024-04-12T01:45:30.304Z,29.45
2024-04-12T01:46:30.366Z,29.38
2024-04-12T01:47:30.525Z,29.38
2024-04-12T01:48:30.877Z,29.36
2024-04-12T01:49:30.579Z,29.34
2024-04-12T01:50:30.631Z,29.32
2024-04-12T01:51:30.696Z,29.39
2024-04-12T01:52:30.737Z,29.37
2024-04-12T01:53:30.810Z,29.34
2024-04-12T01:54:30.883Z,29.28
2024-04-12T01:55:30.935Z,29.29
2024-04-12T01:56:31.027Z,29.36
2024-04-12T01:57:31.051Z,29.30
2024-04-12T01:58:31.125Z,29.31
2024-04-12T01:59:31.187Z,29.28
2024-04-12T02:00:31.283Z,29.30
2024-04-12T02:01:31.335Z,29.34
2024-04-12T02:02:31.380Z,29.31
2024-04-12T02:03:31.766Z,29.28
2024-04-12T02:04:31.678Z,29.26
2024-04-12T02:05:31.577Z,29.28
2024-04-12T02:06:31.637Z,29.24
2024-04-12T02:07:31.705Z,29.22
2024-04-12T02:08:31.837Z,29.26
2024-04-12T02:09:31.847Z,29.23
2024-04-12T02:10:31.924Z,29.26
2024-04-12T02:11:32.055Z,29.21
2024-04-12T02:12:32.059Z,29.21
2024-04-12T02:13:32.103Z,29.18
2024-04-12T02:14:32.220Z,29.17
2024-04-12T02:15:32.265Z,29.24
2024-04-12T02:16:32.337Z,29.21
2024-04-12T02:17:32.495Z,29.21
2024-04-12T02:18:32.508Z,29.16
2024-04-12T02:19:32.500Z,29.13
2024-04-12T02:20:32.591Z,29.13
2024-04-12T02:21:32.613Z,29.20
2024-04-12T02:22:32.667Z,29.18
2024-04-12T02:23:32.741Z,29.21
2024-04-12T02:24:32.790Z,29.14
2024-04-12T02:25:32.865Z,29.13
2024-04-12T02:26:33.005Z,29.20
2024-04-12T02:27:32.995Z,29.17
2024-04-12T02:28:33.045Z,29.14
2024-04-12T02:29:33.236Z,29.18
2024-04-12T02:30:33.181Z,29.20
2024-04-12T02:31:33.272Z,29.11
2024-04-12T02:32:33.399Z,29.09
2024-04-12T02:33:33.942Z,29.10
2024-04-12T02:34:33.442Z,29.14
2024-04-12T02:35:33.570Z,29.15
2024-04-12T02:36:33.593Z,29.13
2024-04-12T02:37:33.662Z,29.10
2024-04-12T02:38:33.734Z,29.11
2024-04-12T02:39:33.779Z,29.19
2024-04-12T02:40:33.844Z,29.14
2024-04-12T02:41:33.920Z,29.10
2024-04-12T02:42:33.938Z,29.10
2024-04-12T02:43:34.051Z,29.10
2024-04-12T02:44:34.104Z,29.10
2024-04-12T02:45:34.166Z,29.10
2024-04-12T02:46:34.212Z,29.09
2024-04-12T02:47:34.387Z,29.11
2024-04-12T02:48:34.430Z,29.10
2024-04-12T02:49:34.422Z,29.11
2024-04-12T02:50:34.527Z,29.08
2024-04-12T02:51:34.521Z,29.11
2024-04-12T02:52:34.578Z,29.07
2024-04-12T02:53:34.647Z,29.07
2024-04-12T02:54:34.715Z,29.04
2024-04-12T02:55:34.777Z,29.10
2024-04-12T02:56:34.882Z,29.10
2024-04-12T02:57:34.889Z,29.06
2024-04-12T02:58:34.962Z,29.04
2024-04-12T02:59:35.036Z,29.05
2024-04-12T03:00:35.084Z,29.07
2024-04-12T03:01:35.146Z,29.07
2024-04-12T03:02:35.270Z,29.06
2024-04-12T03:03:35.347Z,29.13
2024-04-12T03:04:35.341Z,29.11
2024-04-12T03:05:35.467Z,29.10
2024-04-12T03:06:35.495Z,29.03
2024-04-12T03:07:35.518Z,29.04
2024-04-12T03:08:35.616Z,29.04
2024-04-12T03:09:35.593Z,29.01
2024-04-12T03:10:35.616Z,29.07
2024-04-12T03:11:36.626Z,29.03
2024-04-12T03:12:35.712Z,29.06
2024-04-12T03:13:35.778Z,29.07
2024-04-12T03:14:35.853Z,29.07
2024-04-12T03:15:35.816Z,29.04
2024-04-12T03:16:35.915Z,28.96
2024-04-12T03:17:35.927Z,29.03
2024-04-12T03:18:36.036Z,28.99
2024-04-12T03:19:35.952Z,29.04
2024-04-12T03:20:36.013Z,28.99
2024-04-12T03:21:36.022Z,28.99
2024-04-12T03:22:36.048Z,28.94
2024-04-12T03:23:36.050Z,28.97
2024-04-12T03:24:36.078Z,29.03
2024-04-12T03:25:36.128Z,28.93
2024-04-12T03:26:36.216Z,29.01
2024-04-12T03:27:36.260Z,28.94
2024-04-12T03:28:36.307Z,28.97
2024-04-12T03:29:36.423Z,28.97
2024-04-12T03:30:36.450Z,28.96
2024-04-12T03:31:36.550Z,28.94
2024-04-12T03:32:36.662Z,28.94
2024-04-12T03:33:36.824Z,28.91
2024-04-12T03:34:36.699Z,28.91
2024-04-12T03:35:36.794Z,28.90
2024-04-12T03:36:36.843Z,28.87
2024-04-12T03:37:36.937Z,28.88
2024-04-12T03:38:37.041Z,28.91
2024-04-12T03:39:37.062Z,28.88
2024-04-12T03:40:37.109Z,28.90
2024-04-12T03:41:37.199Z,28.88
2024-04-12T03:42:37.240Z,28.87
2024-04-12T03:43:37.257Z,28.88
2024-04-12T03:44:37.428Z,28.87
2024-04-12T03:45:37.369Z,28.88
2024-04-12T03:46:37.445Z,28.86
2024-04-12T03:47:37.612Z,28.84
2024-04-12T03:48:37.645Z,28.86
2024-04-12T03:49:37.589Z,28.83
2024-04-12T03:50:37.704Z,28.84
2024-04-12T03:51:37.706Z,28.78
2024-04-12T03:52:37.791Z,28.85
2024-04-12T03:53:37.954Z,28.80
2024-04-12T03:54:37.875Z,28.83
2024-04-12T03:55:37.937Z,28.84
2024-04-12T03:56:37.988Z,28.84
2024-04-12T03:57:38.011Z,28.85
2024-04-12T03:58:38.069Z,28.80
2024-04-12T03:59:38.072Z,28.81
2024-04-12T04:00:38.135Z,28.80
2024-04-12T04:01:38.176Z,28.84
2024-04-12T04:02:38.249Z,28.84
2024-04-12T04:03:38.262Z,28.81
2024-04-12T04:04:38.279Z,28.77
2024-04-12T04:05:38.352Z,28.81
2024-04-12T04:06:38.394Z,28.76
2024-04-12T04:07:38.472Z,28.73
2024-04-12T04:08:38.502Z,28.74
2024-04-12T04:09:38.551Z,28.75
2024-04-12T04:10:38.595Z,28.73
2024-04-12T04:11:38.713Z,28.67
2024-04-12T04:12:38.718Z,28.76
2024-04-12T04:13:38.789Z,28.70
2024-04-12T04:14:38.920Z,28.70
2024-04-12T04:15:38.920Z,28.67
2024-04-12T04:16:38.960Z,28.68
2024-04-12T04:17:39.114Z,28.67
2024-04-12T04:18:39.137Z,28.67
2024-04-12T04:19:39.122Z,28.63
2024-04-12T04:20:39.194Z,28.61
2024-04-12T04:21:39.180Z,28.64
2024-04-12T04:22:39.193Z,28.57
2024-04-12T04:23:39.220Z,28.66
2024-04-12T04:24:39.256Z,28.64
2024-04-12T04:25:39.268Z,28.61
2024-04-12T04:26:39.422Z,28.63
2024-04-12T04:27:39.413Z,28.64
2024-04-12T04:28:39.374Z,28.64
2024-04-12T04:29:39.434Z,28.67
2024-04-12T04:30:39.475Z,28.63
2024-04-12T04:31:39.509Z,28.57
2024-04-12T04:32:39.623Z,28.57
2024-04-12T04:33:39.703Z,28.58
2024-04-12T04:34:39.641Z,28.57
2024-04-12T04:35:39.758Z,28.56
2024-04-12T04:36:39.785Z,28.57
2024-04-12T04:37:40.229Z,28.58
2024-04-12T04:38:39.895Z,28.56
2024-04-12T04:39:39.925Z,28.57
2024-04-12T04:40:39.931Z,28.56
2024-04-12T04:41:40.002Z,28.58
2024-04-12T04:42:40.002Z,28.54
2024-04-12T04:43:40.004Z,28.56
2024-04-12T04:44:40.035Z,28.54
2024-04-12T04:45:40.124Z,28.56
2024-04-12T04:46:47.451Z,28.51
2024-04-12T04:47:47.626Z,28.54
2024-04-12T04:48:47.630Z,28.52
2024-04-12T04:49:47.446Z,28.51
2024-04-12T04:50:47.494Z,28.48
2024-04-12T04:51:47.460Z,28.50
2024-04-12T04:52:47.480Z,28.43
2024-04-12T04:53:47.533Z,28.43
2024-04-12T04:54:47.455Z,28.49
2024-04-12T04:55:47.467Z,28.39
2024-04-12T04:56:47.490Z,28.43
2024-04-12T04:57:47.464Z,28.44
2024-04-12T04:58:47.464Z,28.43
2024-04-12T04:59:47.528Z,28.44
2024-04-12T05:00:47.628Z,28.43
2024-04-12T05:01:47.512Z,28.41
2024-04-12T05:02:47.524Z,28.41
2024-04-12T05:03:47.474Z,28.40
2024-04-12T05:04:47.506Z,28.43
2024-04-12T05:05:47.523Z,28.41
2024-04-12T05:06:47.524Z,28.36
2024-04-12T05:07:47.481Z,28.34
2024-04-12T05:08:47.512Z,28.36
2024-04-12T05:09:47.530Z,28.37
2024-04-12T05:10:47.488Z,28.33
2024-04-12T05:11:47.541Z,28.36
2024-04-12T05:12:47.583Z,28.34
2024-04-12T05:13:47.489Z,28.34
2024-04-12T05:14:47.514Z,28.33
2024-04-12T05:15:47.498Z,28.26
2024-04-12T05:16:47.493Z,28.27
2024-04-12T05:17:47.635Z,28.25
2024-04-12T05:18:47.601Z,28.30
2024-04-12T05:19:47.496Z,28.27
2024-04-12T05:20:47.536Z,28.20
2024-04-12T05:21:47.527Z,28.21
2024-04-12T05:22:47.621Z,28.24
2024-04-12T05:23:47.559Z,28.26
2024-04-12T05:24:47.514Z,28.20
2024-04-12T05:25:47.508Z,28.25
2024-04-12T05:26:47.570Z,28.23
2024-04-12T05:27:47.537Z,28.21
2024-04-12T05:28:47.563Z,28.23
2024-04-12T05:29:48.379Z,28.21
2024-04-12T05:30:47.515Z,28.25
2024-04-12T05:31:47.537Z,28.93
2024-04-12T05:32:47.687Z,31.64
2024-04-12T05:33:47.600Z,30.70
2024-04-12T05:34:47.528Z,30.35
2024-04-12T05:35:47.704Z,30.28
2024-04-12T05:36:47.560Z,30.43
2024-04-12T05:37:51.033Z,30.60
2024-04-12T05:38:47.568Z,30.50
2024-04-12T05:39:47.620Z,30.28
2024-04-12T05:40:47.655Z,30.01
2024-04-12T05:41:47.582Z,30.12
2024-04-12T05:42:47.566Z,30.27
2024-04-12T05:43:47.536Z,30.00
2024-04-12T05:44:47.641Z,30.60
2024-04-12T05:45:47.570Z,30.57
2024-04-12T05:46:47.638Z,30.69
2024-04-12T05:47:48.156Z,30.72
2024-04-12T05:48:47.581Z,30.60
2024-04-12T05:49:47.573Z,30.36
2024-04-12T05:50:47.587Z,30.29
2024-04-12T05:51:47.579Z,30.14
2024-04-12T05:52:47.551Z,29.92
2024-04-12T05:53:47.607Z,29.86
2024-04-12T05:54:47.599Z,29.72
2024-04-12T05:55:47.569Z,29.72
2024-04-12T05:56:47.596Z,29.67
2024-04-12T05:57:47.553Z,29.62
2024-04-12T05:58:47.579Z,29.58
2024-04-12T05:59:47.616Z,29.46
2024-04-12T06:00:47.684Z,29.43
2024-04-12T06:01:47.672Z,29.43
2024-04-12T06:02:47.623Z,29.39
2024-04-12T06:04:47.571Z,29.36
2024-04-12T06:05:47.595Z,29.32
2024-04-12T06:06:47.598Z,29.31
2024-04-12T06:07:47.633Z,29.31
2024-04-12T06:08:47.653Z,29.31
2024-04-12T06:09:47.580Z,29.29
2024-04-12T06:10:47.588Z,29.28
2024-04-12T06:11:47.747Z,29.34
2024-04-12T06:12:48.650Z,29.39
2024-04-12T06:13:47.586Z,29.34
2024-04-12T06:14:47.622Z,29.32
2024-04-12T06:15:47.602Z,29.30
2024-04-12T06:16:47.617Z,29.34
2024-04-12T06:17:47.719Z,29.28
2024-04-12T06:18:47.634Z,29.31
2024-04-12T06:19:47.597Z,29.30
2024-04-12T06:20:47.634Z,29.38
2024-04-12T06:21:47.650Z,29.34
2024-04-12T06:22:47.632Z,29.34
2024-04-12T06:23:47.685Z,29.38
2024-04-12T06:24:47.695Z,29.31
2024-04-12T06:25:47.711Z,29.35
2024-04-12T06:26:47.777Z,29.34
2024-04-12T06:27:47.746Z,29.34
2024-04-12T06:28:47.762Z,29.37
2024-04-12T06:29:47.967Z,29.36
2024-04-12T06:30:47.821Z,29.30
2024-04-12T06:31:48.106Z,29.34
2024-04-12T06:32:48.075Z,29.31
2024-04-12T06:33:47.971Z,30.00
2024-04-12T06:34:47.899Z,30.22
2024-04-12T06:35:47.918Z,30.33
2024-04-12T06:36:48.028Z,30.35
2024-04-12T06:37:49.685Z,30.46
2024-04-12T06:38:48.036Z,31.13
2024-04-12T06:39:47.964Z,31.03
2024-04-12T06:40:47.952Z,31.18
2024-04-12T06:41:48.126Z,31.36
2024-04-12T06:42:48.027Z,31.40
2024-04-12T06:43:48.044Z,31.22
2024-04-12T06:44:47.992Z,31.08
2024-04-12T06:45:47.976Z,30.87
2024-04-12T06:46:48.002Z,30.73
2024-04-12T06:47:48.068Z,31.17
2024-04-12T06:48:48.043Z,31.48
2024-04-12T06:49:47.954Z,31.52
2024-04-12T06:50:47.971Z,31.69
2024-04-12T06:51:47.964Z,31.64
2024-04-12T06:52:47.952Z,31.56
2024-04-12T06:53:48.071Z,31.39
2024-04-12T06:54:47.981Z,31.25
2024-04-12T06:55:47.995Z,31.21
2024-04-12T06:56:48.013Z,31.02
2024-04-12T06:57:47.972Z,30.84
2024-04-12T06:58:48.119Z,30.87
2024-04-12T06:59:48.012Z,31.04
2024-04-12T07:00:47.969Z,30.95
2024-04-12T07:01:48.113Z,30.93
2024-04-12T07:02:48.156Z,30.66
2024-04-12T07:03:48.484Z,30.76
2024-04-12T07:04:47.970Z,30.67
2024-04-12T07:05:48.003Z,30.74
2024-04-12T07:06:47.987Z,31.04
2024-04-12T07:07:47.976Z,31.49
2024-04-12T07:08:48.000Z,31.72
2024-04-12T07:09:48.014Z,31.80
2024-04-12T07:10:47.999Z,31.76
2024-04-12T07:11:48.053Z,31.83
2024-04-12T07:12:47.997Z,31.83
2024-04-12T07:13:48.012Z,31.77
2024-04-12T07:14:48.026Z,31.77
2024-04-12T07:15:48.039Z,31.65
2024-04-12T07:16:48.009Z,31.63
2024-04-12T07:17:48.120Z,31.70
2024-04-12T07:18:48.059Z,31.60
2024-04-12T07:19:48.112Z,31.58
2024-04-12T07:20:48.038Z,31.62
2024-04-12T07:21:48.095Z,31.64
2024-04-12T07:22:48.055Z,31.67
2024-04-12T07:23:48.420Z,31.69
2024-04-12T07:24:48.038Z,31.82
2024-04-12T07:25:48.034Z,31.93
2024-04-12T07:26:48.132Z,32.07
2024-04-12T07:27:48.050Z,32.21
2024-04-12T07:28:48.029Z,31.99
2024-04-12T07:29:48.116Z,31.97
2024-04-12T07:30:48.055Z,31.86
2024-04-12T07:31:48.143Z,31.95
2024-04-12T07:32:48.143Z,31.80
2024-04-12T07:33:48.129Z,32.12
2024-04-12T07:34:48.020Z,32.39
2024-04-12T07:35:48.079Z,32.20
2024-04-12T07:36:48.059Z,32.20
2024-04-12T07:37:48.087Z,32.24
2024-04-12T07:38:48.260Z,32.14
2024-04-12T07:39:48.060Z,31.97
2024-04-12T07:40:48.031Z,31.95
2024-04-12T07:41:48.070Z,31.81
2024-04-12T07:42:48.093Z,31.61
2024-04-12T07:43:48.059Z,31.62
2024-04-12T07:44:48.086Z,31.62
2024-04-12T07:45:48.169Z,31.72
2024-04-12T07:46:48.194Z,31.88
2024-04-12T07:47:48.144Z,31.69
2024-04-12T07:48:48.135Z,31.57
2024-04-12T07:49:48.064Z,31.53
2024-04-12T07:50:48.120Z,31.55
2024-04-12T07:51:48.071Z,31.52
2024-04-12T07:52:48.055Z,31.54
2024-04-12T07:53:48.150Z,31.73
2024-04-12T07:54:48.143Z,31.73
2024-04-12T07:55:49.555Z,31.84
2024-04-12T07:56:48.087Z,31.97
2024-04-12T07:57:48.096Z,32.05
2024-04-12T07:58:48.078Z,32.16
2024-04-12T07:59:48.140Z,32.26
2024-04-12T08:00:48.126Z,32.33
2024-04-12T08:01:48.155Z,32.30
2024-04-12T08:02:48.143Z,32.29
2024-04-12T08:03:48.182Z,32.32
2024-04-12T08:04:48.131Z,32.22
2024-04-12T08:05:48.132Z,32.37
2024-04-12T08:06:48.091Z,32.67
2024-04-12T08:07:48.103Z,32.55
2024-04-12T08:08:48.149Z,32.54
2024-04-12T08:09:48.133Z,32.62
2024-04-12T08:10:48.169Z,32.53
2024-04-12T08:11:48.180Z,32.57
2024-04-12T08:12:48.141Z,32.45
2024-04-12T08:13:48.094Z,32.53
2024-04-12T08:14:48.156Z,32.38
2024-04-12T08:15:48.147Z,32.46
2024-04-12T08:16:48.114Z,32.34
2024-04-12T08:17:48.263Z,32.30
2024-04-12T08:18:48.166Z,32.45
2024-04-12T08:19:48.101Z,32.58
2024-04-12T08:20:48.259Z,32.50
2024-04-12T08:21:48.661Z,32.51
2024-04-12T08:22:48.149Z,32.58
2024-04-12T08:23:48.258Z,32.47
2024-04-12T08:24:48.216Z,32.68
2024-04-12T08:25:48.106Z,33.20
2024-04-12T08:26:48.199Z,33.78
2024-04-12T08:27:48.173Z,33.55
2024-04-12T08:28:48.115Z,33.19
2024-04-12T08:29:48.151Z,33.05
2024-04-12T08:30:48.189Z,33.04
2024-04-12T08:31:48.172Z,33.10
2024-04-12T08:32:48.202Z,33.14
2024-04-12T08:33:48.192Z,33.06
2024-04-12T08:34:48.130Z,33.02
2024-04-12T08:35:48.202Z,33.06
2024-04-12T08:36:48.160Z,32.97
2024-04-12T08:37:51.239Z,32.86
2024-04-12T08:38:49.185Z,32.77
2024-04-12T08:39:48.168Z,32.71
2024-04-12T08:40:48.201Z,32.62
2024-04-12T08:41:48.207Z,33.85
2024-04-12T08:42:48.188Z,34.57
2024-04-12T08:43:48.142Z,34.74
2024-04-12T08:44:48.327Z,34.22
2024-04-12T08:45:48.215Z,34.06
2024-04-12T08:46:48.331Z,34.58
2024-04-12T08:47:48.397Z,34.01
2024-04-12T08:48:48.498Z,33.76
2024-04-12T08:49:48.334Z,33.55
2024-04-12T08:50:48.457Z,33.61
2024-04-12T08:51:48.473Z,33.53
2024-04-12T08:52:48.535Z,33.79
2024-04-12T08:53:48.632Z,33.68
2024-04-12T08:54:48.676Z,33.74
2024-04-12T08:55:48.717Z,33.77
2024-04-12T08:56:48.793Z,33.79
2024-04-12T08:57:48.947Z,33.63
2024-04-12T08:58:48.920Z,33.63
2024-04-12T08:59:49.059Z,33.52
2024-04-12T09:00:49.084Z,33.48
2024-04-12T09:01:49.125Z,33.38
2024-04-12T09:02:50.291Z,33.48
2024-04-12T09:03:49.311Z,33.40
2024-04-12T09:04:49.340Z,33.37
2024-04-12T09:05:49.588Z,33.37
2024-04-12T09:06:49.413Z,33.43
2024-04-12T09:07:49.503Z,33.51
2024-04-12T09:08:49.618Z,33.51
2024-04-12T09:09:49.622Z,33.48
2024-04-12T09:10:49.680Z,33.49
2024-04-12T09:11:49.796Z,33.55
2024-04-12T09:12:49.798Z,33.48
2024-04-12T09:13:49.848Z,33.49
2024-04-12T09:14:49.913Z,33.45
2024-04-12T09:15:49.952Z,33.38
2024-04-12T09:16:50.135Z,33.25
2024-04-12T09:17:50.269Z,33.25
2024-04-12T09:18:50.243Z,33.27
2024-04-12T09:19:50.176Z,33.23
2024-04-12T09:20:50.285Z,33.09
2024-04-12T09:21:50.350Z,33.10
2024-04-12T09:22:50.383Z,33.09
2024-04-12T09:23:50.452Z,33.12
2024-04-12T09:24:50.520Z,32.99
2024-04-12T09:25:50.560Z,33.09
2024-04-12T09:26:50.646Z,33.13
2024-04-12T09:27:50.763Z,33.14
2024-04-12T09:28:50.828Z,33.11
2024-04-12T09:29:50.803Z,33.17
2024-04-12T09:30:50.820Z,33.13
2024-04-12T09:31:50.938Z,33.32
2024-04-12T09:32:51.093Z,34.02
2024-04-12T09:33:51.164Z,34.00
2024-04-12T09:34:51.053Z,33.84
2024-04-12T09:35:51.205Z,33.82
2024-04-12T09:36:51.167Z,34.02
2024-04-12T09:37:51.244Z,35.12
2024-04-12T09:38:51.293Z,35.18
2024-04-12T09:39:51.344Z,35.24
2024-04-12T09:40:51.356Z,34.88
2024-04-12T09:41:51.431Z,34.23
2024-04-12T09:42:51.697Z,33.95
2024-04-12T09:43:51.450Z,33.89
2024-04-12T09:44:51.548Z,33.76
2024-04-12T09:45:51.546Z,33.74
2024-04-12T09:46:51.621Z,33.63
2024-04-12T09:47:51.847Z,33.59
2024-04-12T09:48:51.771Z,33.64
2024-04-12T09:49:51.895Z,33.54
2024-04-12T09:50:51.864Z,33.49
2024-04-12T09:51:51.877Z,33.47
2024-04-12T09:52:51.938Z,33.49
2024-04-12T09:53:52.077Z,33.49
2024-04-12T09:54:52.086Z,33.43
2024-04-12T09:55:52.213Z,33.46
2024-04-12T09:56:52.265Z,33.48
2024-04-12T09:57:52.297Z,33.51
2024-04-12T09:58:52.332Z,33.50
2024-04-12T09:59:52.451Z,33.54
2024-04-12T10:00:52.476Z,33.61
2024-04-12T10:01:52.545Z,33.61
2024-04-12T10:02:52.856Z,33.57
2024-04-12T10:03:52.701Z,33.58
2024-04-12T10:04:52.753Z,33.61
2024-04-12T10:05:52.853Z,33.52
2024-04-12T10:06:52.906Z,33.62
2024-04-12T10:07:52.927Z,33.65
2024-04-12T10:08:53.028Z,33.67
2024-04-12T10:09:53.042Z,33.72
2024-04-12T10:10:53.143Z,33.80
2024-04-12T10:11:53.199Z,33.77
2024-04-12T10:12:53.282Z,33.76
2024-04-12T10:13:53.291Z,33.81
2024-04-12T10:14:53.368Z,33.77
2024-04-12T10:15:53.433Z,33.75
2024-04-12T10:16:53.502Z,33.85
2024-04-12T10:17:53.739Z,33.77
2024-04-12T10:18:53.753Z,33.85
2024-04-12T10:19:53.690Z,33.89
2024-04-12T10:20:53.830Z,33.86
2024-04-12T10:21:53.882Z,33.83
2024-04-12T10:22:53.911Z,33.86
2024-04-12T10:23:54.009Z,33.87
2024-04-12T10:24:54.049Z,33.95
2024-04-12T10:25:54.093Z,33.98
2024-04-12T10:26:54.162Z,33.97
2024-04-12T10:27:54.700Z,33.94
2024-04-12T10:28:54.256Z,34.04
2024-04-12T10:29:54.370Z,34.14
2024-04-12T10:30:54.387Z,34.08
2024-04-12T10:31:54.492Z,34.18
2024-04-12T10:32:54.633Z,34.22
2024-04-12T10:33:54.595Z,34.38
2024-04-12T10:34:54.600Z,34.42
2024-04-12T10:35:54.824Z,35.10
2024-04-12T10:36:54.732Z,34.83
2024-04-12T10:37:54.813Z,34.91
2024-04-12T10:38:54.927Z,34.78
2024-04-12T10:39:54.958Z,34.60
2024-04-12T10:40:55.004Z,34.33
2024-04-12T10:41:55.056Z,34.26
2024-04-12T10:42:55.243Z,34.21
2024-04-12T10:43:55.148Z,34.13
2024-04-12T10:44:55.252Z,34.10
2024-04-12T10:45:55.336Z,34.10
2024-04-12T10:46:55.339Z,34.08
2024-04-12T10:47:55.438Z,34.03
2024-04-12T10:48:55.484Z,34.03
2024-04-12T10:49:55.515Z,34.12
2024-04-12T10:50:55.679Z,34.21
2024-04-12T10:51:55.627Z,34.29
2024-04-12T10:52:55.704Z,34.39
2024-04-12T10:53:55.782Z,34.32
2024-04-12T10:54:55.793Z,34.08
2024-04-12T10:55:55.893Z,33.82
2024-04-12T10:56:58.873Z,33.62
2024-04-12T10:57:56.013Z,33.70
2024-04-12T10:58:55.932Z,33.65
2024-04-12T10:59:55.954Z,33.72
2024-04-12T11:00:55.985Z,34.00
2024-04-12T11:01:55.945Z,34.30
2024-04-12T11:03:02.771Z,34.30
2024-04-12T11:03:56.978Z,34.26
2024-04-12T11:04:58.085Z,34.21
2024-04-12T11:05:55.954Z,34.16
2024-04-12T11:06:55.952Z,34.13
2024-04-12T11:07:56.222Z,34.17
2024-04-12T11:08:55.992Z,34.84
2024-04-12T11:09:55.971Z,35.07
2024-04-12T11:10:56.093Z,35.12
2024-04-12T11:11:55.978Z,34.80
2024-04-12T11:12:55.964Z,34.68
2024-04-12T11:13:55.968Z,34.41
2024-04-12T11:14:56.001Z,34.03
2024-04-12T11:15:56.006Z,34.10
2024-04-12T11:16:55.968Z,34.09
2024-04-12T11:17:56.124Z,34.15
2024-04-12T11:18:56.146Z,35.62
2024-04-12T11:19:55.988Z,35.55
2024-04-12T11:20:56.008Z,35.37
2024-04-12T11:21:56.032Z,35.08
2024-04-12T11:22:56.003Z,35.12
2024-04-12T11:23:55.994Z,35.38
2024-04-12T11:24:56.022Z,35.11
2024-04-12T11:25:55.965Z,35.12
2024-04-12T11:26:55.986Z,35.05
2024-04-12T11:27:56.004Z,35.00
2024-04-12T11:28:55.998Z,34.84
2024-04-12T11:29:56.028Z,34.72
2024-04-12T11:30:56.012Z,34.60
2024-04-12T11:31:56.043Z,34.51
2024-04-12T11:32:56.024Z,34.38
2024-04-12T11:34:04.018Z,34.24
2024-04-12T11:34:57.100Z,34.21
2024-04-12T11:35:56.168Z,34.25
2024-04-12T11:36:56.009Z,34.21
2024-04-12T11:37:56.012Z,34.19
2024-04-12T11:38:56.019Z,34.12
2024-04-12T11:39:56.006Z,34.06
2024-04-12T11:40:56.014Z,34.00
2024-04-12T11:41:56.061Z,34.06
2024-04-12T11:42:56.047Z,34.09
2024-04-12T11:43:56.083Z,34.23
2024-04-12T11:44:56.090Z,34.30
2024-04-12T11:45:56.022Z,34.61
2024-04-12T11:46:56.027Z,34.52
2024-04-12T11:47:56.248Z,34.56
2024-04-12T11:48:56.233Z,34.50
2024-04-12T11:49:56.139Z,34.49
2024-04-12T11:50:56.190Z,34.37
2024-04-12T11:51:56.206Z,34.42
2024-04-12T11:52:56.561Z,34.36
2024-04-12T11:53:56.298Z,34.34
2024-04-12T11:54:56.344Z,34.30
2024-04-12T11:55:56.366Z,34.39
2024-04-12T11:56:56.434Z,34.36
2024-04-12T11:57:56.430Z,34.35
2024-04-12T11:58:57.137Z,34.38
2024-04-12T11:59:56.491Z,34.32
2024-04-12T12:00:56.531Z,34.25
2024-04-12T12:01:56.588Z,34.19
2024-04-12T12:02:56.620Z,34.09
2024-04-12T12:03:56.626Z,34.05
2024-04-12T12:04:56.610Z,34.02
2024-04-12T12:05:56.683Z,33.96
2024-04-12T12:06:56.662Z,33.82
2024-04-12T12:07:56.672Z,33.71
2024-04-12T12:08:56.703Z,33.69
2024-04-12T12:09:56.742Z,33.65
2024-04-12T12:10:56.739Z,33.56
2024-04-12T12:11:56.825Z,33.50
2024-04-12T12:12:56.767Z,33.49
2024-04-12T12:13:56.809Z,33.56
2024-04-12T12:14:56.852Z,33.48
2024-04-12T12:15:56.813Z,33.71
2024-04-12T12:16:57.366Z,33.59
2024-04-12T12:17:56.933Z,33.69
2024-04-12T12:18:56.925Z,33.66
2024-04-12T12:19:56.900Z,33.87
2024-04-12T12:20:57.054Z,33.91
2024-04-12T12:21:56.998Z,33.72
2024-04-12T12:22:56.998Z,33.74
2024-04-12T12:23:57.052Z,33.67
2024-04-12T12:24:57.036Z,33.94
2024-04-12T12:25:57.074Z,33.71
2024-04-12T12:26:57.152Z,33.55
2024-04-12T12:27:57.145Z,33.66
2024-04-12T12:28:57.178Z,33.67
2024-04-12T12:29:57.222Z,33.58
2024-04-12T12:30:57.231Z,33.50
2024-04-12T12:31:57.266Z,33.48
2024-04-12T12:32:57.379Z,33.48
2024-04-12T12:33:57.392Z,33.46
2024-04-12T12:34:57.340Z,33.53
2024-04-12T12:35:57.394Z,33.72
2024-04-12T12:36:57.416Z,34.59
2024-04-12T12:37:57.434Z,34.89
2024-04-12T12:38:57.413Z,35.42
2024-04-12T12:39:57.411Z,35.02
2024-04-12T12:40:57.448Z,34.68
2024-04-12T12:41:57.494Z,34.59
2024-04-12T12:42:57.474Z,34.63
2024-04-12T12:43:57.508Z,34.57
2024-04-12T12:44:57.533Z,34.40
2024-04-12T12:45:57.523Z,34.39
2024-04-12T12:46:57.567Z,34.20
2024-04-12T12:47:57.656Z,34.19
2024-04-12T12:48:57.708Z,33.94
2024-04-12T12:49:57.599Z,33.90
2024-04-12T12:50:57.712Z,33.90
2024-04-12T12:51:57.650Z,33.85
2024-04-12T12:52:57.708Z,33.75
2024-04-12T12:53:57.761Z,33.65